createdAt,value
2022-12-31T00:00:07.293Z,87.73
2022-12-31T00:02:34.116Z,88.50
2022-12-31T00:05:00.943Z,88.16
2022-12-31T00:07:27.595Z,88.09
2022-12-31T00:09:54.296Z,88.42
2022-12-31T00:12:21.034Z,88.02
2022-12-31T00:14:47.765Z,87.31
2022-12-31T00:17:14.576Z,87.05
2022-12-31T00:19:41.209Z,84.19
2022-12-31T00:22:07.837Z,83.05
2022-12-31T00:24:35.962Z,83.03
2022-12-31T00:27:02.717Z,83.24
2022-12-31T00:29:29.311Z,83.75
2022-12-31T00:31:55.971Z,82.72
2022-12-31T00:34:22.725Z,83.84
2022-12-31T00:36:49.452Z,83.90
2022-12-31T00:39:16.181Z,83.74
2022-12-31T00:41:44.182Z,82.74
2022-12-31T00:44:13.969Z,82.78
2022-12-31T00:49:06.420Z,84.47
2022-12-31T00:51:33.119Z,84.25
2022-12-31T00:53:59.826Z,83.87
2022-12-31T00:56:28.360Z,82.96
2022-12-31T00:58:55.000Z,83.79
2022-12-31T01:01:23.526Z,84.05
2022-12-31T01:03:51.683Z,83.45
2022-12-31T01:06:18.520Z,83.20
2022-12-31T01:08:45.332Z,85.55
2022-12-31T01:11:24.537Z,85.89
2022-12-31T01:13:56.032Z,86.88
2022-12-31T01:16:34.690Z,88.57
2022-12-31T01:19:04.261Z,87.85
2022-12-31T01:21:31.069Z,88.56
2022-12-31T01:23:58.575Z,89.91
2022-12-31T01:26:25.273Z,89.37
2022-12-31T01:28:51.889Z,88.57
2022-12-31T01:31:19.511Z,87.63
2022-12-31T01:33:46.199Z,88.25
2022-12-31T01:36:20.350Z,88.37
2022-12-31T01:38:51.973Z,88.39
2022-12-31T01:41:20.493Z,88.13
2022-12-31T01:43:48.395Z,87.50
2022-12-31T01:46:40.202Z,88.03
2022-12-31T01:49:12.804Z,87.16
2022-12-31T01:51:39.423Z,87.31
2022-12-31T01:54:07.781Z,86.98
2022-12-31T01:56:34.441Z,87.88
2022-12-31T01:59:01.417Z,87.60
2022-12-31T02:01:29.398Z,87.65
2022-12-31T02:03:56.423Z,88.04
2022-12-31T02:06:43.574Z,86.74
2022-12-31T02:09:10.753Z,86.90
2022-12-31T02:11:38.140Z,87.80
2022-12-31T02:14:08.876Z,86.98
2022-12-31T02:17:03.464Z,86.95
2022-12-31T02:19:48.619Z,89.09
2022-12-31T02:22:21.214Z,88.44
2022-12-31T02:25:18.957Z,86.79
2022-12-31T02:27:51.166Z,87.71
2022-12-31T02:30:22.064Z,89.82
2022-12-31T02:33:25.299Z,89.18
2022-12-31T02:35:55.462Z,88.23
2022-12-31T02:38:27.436Z,87.14
2022-12-31T02:40:54.435Z,87.08
2022-12-31T02:43:21.183Z,86.78
2022-12-31T02:45:50.660Z,85.09
2022-12-31T02:48:52.678Z,84.72
2022-12-31T02:51:33.314Z,86.61
2022-12-31T02:54:13.535Z,88.23
2022-12-31T02:57:11.780Z,88.55
2022-12-31T03:00:01.430Z,88.49
2022-12-31T03:02:28.467Z,89.08
2022-12-31T03:04:56.213Z,88.83
2022-12-31T03:07:23.758Z,89.22
2022-12-31T03:09:50.617Z,89.61
2022-12-31T03:12:36.171Z,89.88
2022-12-31T03:15:06.726Z,90.13
2022-12-31T03:17:34.038Z,89.61
2022-12-31T03:20:19.174Z,87.93
2022-12-31T03:22:47.168Z,87.40
2022-12-31T03:25:34.310Z,85.47
2022-12-31T03:28:02.580Z,86.60
2022-12-31T03:30:29.616Z,86.46
2022-12-31T03:32:56.448Z,87.51
2022-12-31T03:35:23.186Z,87.52
2022-12-31T03:37:50.316Z,85.76
2022-12-31T03:40:17.188Z,86.37
2022-12-31T03:42:43.811Z,87.81
2022-12-31T03:45:10.888Z,87.59
2022-12-31T03:47:37.470Z,88.13
2022-12-31T03:50:05.263Z,87.97
2022-12-31T03:52:31.889Z,89.83
2022-12-31T03:54:58.509Z,89.44
2022-12-31T03:57:25.261Z,87.69
2022-12-31T03:59:51.880Z,88.12
2022-12-31T04:02:20.916Z,87.68
2022-12-31T04:04:51.448Z,86.78
2022-12-31T04:07:18.050Z,86.98
2022-12-31T04:09:44.690Z,86.27
2022-12-31T04:12:11.407Z,86.59
2022-12-31T04:14:38.047Z,86.43
2022-12-31T04:17:04.744Z,85.88
2022-12-31T04:19:31.372Z,85.85
2022-12-31T04:21:57.994Z,86.83
2022-12-31T04:24:24.688Z,87.05
2022-12-31T04:26:51.381Z,87.79
2022-12-31T04:29:18.124Z,87.54
2022-12-31T04:31:44.757Z,87.14
2022-12-31T04:34:11.404Z,88.45
2022-12-31T04:36:38.140Z,87.33
2022-12-31T04:39:04.797Z,86.17
2022-12-31T04:41:31.344Z,85.47
2022-12-31T04:43:58.670Z,85.29
2022-12-31T04:46:32.595Z,85.87
2022-12-31T04:48:59.077Z,85.89
2022-12-31T04:51:26.258Z,86.30
2022-12-31T04:53:53.142Z,85.63
2022-12-31T04:56:19.865Z,87.67
2022-12-31T04:58:46.674Z,88.16
2022-12-31T05:01:13.490Z,90.08
2022-12-31T05:03:40.116Z,91.32
2022-12-31T05:06:14.616Z,91.24
2022-12-31T05:08:41.440Z,89.09
2022-12-31T05:11:08.190Z,87.91
2022-12-31T05:13:34.975Z,87.30
2022-12-31T05:16:02.269Z,86.60
2022-12-31T05:18:30.282Z,86.57
2022-12-31T05:20:56.939Z,85.87
2022-12-31T05:23:23.619Z,86.02
2022-12-31T05:25:50.499Z,84.77
2022-12-31T05:28:17.289Z,84.81
2022-12-31T05:30:44.175Z,84.68
2022-12-31T05:33:11.004Z,84.11
2022-12-31T05:35:37.582Z,84.26
2022-12-31T05:38:04.288Z,84.29
2022-12-31T05:40:31.006Z,83.61
2022-12-31T05:42:57.706Z,84.32
2022-12-31T05:45:30.378Z,82.93
2022-12-31T05:47:57.631Z,82.29
2022-12-31T05:50:24.246Z,83.40
2022-12-31T05:52:50.935Z,85.48
2022-12-31T05:55:17.778Z,86.10
2022-12-31T05:57:44.397Z,88.21
2022-12-31T06:00:11.747Z,87.68
2022-12-31T06:02:38.425Z,87.87
2022-12-31T06:05:05.529Z,87.05
2022-12-31T06:07:32.153Z,86.56
2022-12-31T06:09:58.872Z,84.59
2022-12-31T06:12:25.567Z,83.97
2022-12-31T06:14:52.308Z,84.24
2022-12-31T06:17:19.200Z,85.42
2022-12-31T06:19:46.599Z,86.02
2022-12-31T06:22:13.192Z,85.10
2022-12-31T06:24:39.839Z,85.47
2022-12-31T06:27:06.531Z,86.65
2022-12-31T06:29:33.168Z,86.28
2022-12-31T06:32:00.354Z,84.99
2022-12-31T06:34:27.041Z,85.04
2022-12-31T06:36:53.731Z,84.74
2022-12-31T06:39:20.399Z,84.75
2022-12-31T06:41:47.016Z,85.54
2022-12-31T06:44:14.935Z,86.21
2022-12-31T06:46:41.741Z,85.77
2022-12-31T06:49:08.587Z,85.89
2022-12-31T06:51:35.191Z,85.72
2022-12-31T06:54:01.941Z,86.00
2022-12-31T06:56:34.053Z,86.35
2022-12-31T06:59:02.487Z,85.44
2022-12-31T07:01:35.104Z,84.98
2022-12-31T07:04:13.559Z,85.85
2022-12-31T07:06:53.409Z,86.10
2022-12-31T07:09:44.786Z,86.83
2022-12-31T07:12:24.840Z,86.53
2022-12-31T07:15:10.341Z,86.45
2022-12-31T07:17:55.091Z,85.76
2022-12-31T07:20:22.114Z,85.79
2022-12-31T07:22:48.988Z,85.14
2022-12-31T07:25:19.086Z,85.62
2022-12-31T07:28:07.476Z,85.62
2022-12-31T07:30:47.433Z,86.15
2022-12-31T07:33:29.801Z,85.91
2022-12-31T07:36:14.647Z,86.95
2022-12-31T07:38:51.431Z,86.38
2022-12-31T07:41:23.060Z,85.78
2022-12-31T07:44:11.606Z,86.33
2022-12-31T07:47:04.642Z,86.76
2022-12-31T07:49:31.921Z,85.49
2022-12-31T07:51:58.789Z,85.49
2022-12-31T07:54:25.497Z,85.83
2022-12-31T07:56:52.273Z,85.90
2022-12-31T07:59:55.444Z,86.23
2022-12-31T08:02:40.165Z,85.62
2022-12-31T08:05:24.655Z,84.88
2022-12-31T08:08:14.572Z,83.96
2022-12-31T08:11:07.387Z,84.07
2022-12-31T08:13:34.106Z,83.89
2022-12-31T08:16:01.695Z,83.99
2022-12-31T08:18:28.639Z,83.92
2022-12-31T08:21:17.176Z,83.42
2022-12-31T08:23:53.910Z,83.35
2022-12-31T08:26:41.633Z,81.68
2022-12-31T08:29:32.961Z,81.26
2022-12-31T08:32:08.696Z,81.19
2022-12-31T08:34:53.206Z,80.29
2022-12-31T08:37:42.123Z,80.21
2022-12-31T08:40:32.024Z,79.23
2022-12-31T08:42:58.546Z,79.09
2022-12-31T08:45:33.783Z,77.53
2022-12-31T08:48:19.063Z,76.24
2022-12-31T08:50:45.913Z,76.66
2022-12-31T08:53:12.897Z,77.58
2022-12-31T08:55:40.681Z,77.47
2022-12-31T08:58:10.314Z,77.14
2022-12-31T09:00:36.961Z,75.22
2022-12-31T09:03:16.359Z,74.28
2022-12-31T09:06:10.812Z,75.62
2022-12-31T09:08:58.929Z,75.33
2022-12-31T09:11:29.172Z,75.34
2022-12-31T09:14:04.782Z,74.88
2022-12-31T09:17:02.444Z,75.47
2022-12-31T09:19:29.171Z,76.32
2022-12-31T09:21:56.147Z,75.99
2022-12-31T09:24:23.091Z,74.59
2022-12-31T09:27:06.065Z,73.32
2022-12-31T09:29:56.145Z,70.83
2022-12-31T09:32:28.787Z,70.05
2022-12-31T09:34:58.527Z,71.38
2022-12-31T09:37:29.764Z,70.61
2022-12-31T09:39:56.746Z,72.70
2022-12-31T09:42:44.636Z,69.57
2022-12-31T09:45:35.461Z,68.70
2022-12-31T09:48:17.363Z,67.15
2022-12-31T09:51:26.756Z,66.64
2022-12-31T09:54:05.194Z,66.06
2022-12-31T09:57:25.110Z,65.18
2022-12-31T09:59:58.119Z,65.08
2022-12-31T10:02:36.802Z,61.88
2022-12-31T10:05:31.448Z,62.80
2022-12-31T10:08:01.183Z,63.59
2022-12-31T10:11:00.653Z,64.14
2022-12-31T10:13:36.715Z,64.12
2022-12-31T10:16:41.498Z,62.10
2022-12-31T10:19:30.018Z,60.75
2022-12-31T10:22:07.163Z,61.15
2022-12-31T10:24:39.668Z,60.71
2022-12-31T10:27:33.761Z,59.78
2022-12-31T10:30:17.677Z,60.57
2022-12-31T10:33:21.879Z,59.91
2022-12-31T10:35:54.405Z,61.55
2022-12-31T10:38:31.399Z,62.66
2022-12-31T10:41:00.921Z,59.65
2022-12-31T10:43:51.926Z,58.13
2022-12-31T10:46:47.613Z,59.56
2022-12-31T10:49:39.075Z,59.57
2022-12-31T10:52:30.154Z,57.42
2022-12-31T10:55:24.251Z,56.56
2022-12-31T10:58:11.726Z,56.49
2022-12-31T11:01:05.624Z,57.70
2022-12-31T11:04:09.767Z,56.76
2022-12-31T11:07:17.403Z,56.75
2022-12-31T11:09:51.913Z,55.77
2022-12-31T11:12:33.974Z,55.83
2022-12-31T11:15:03.542Z,53.56
2022-12-31T11:17:42.228Z,56.41
2022-12-31T11:20:14.914Z,56.25
2022-12-31T11:22:53.575Z,54.03
2022-12-31T11:25:46.771Z,53.96
2022-12-31T11:28:38.972Z,55.27
2022-12-31T11:31:23.380Z,52.93
2022-12-31T11:33:55.691Z,54.68
2022-12-31T11:36:40.264Z,54.77
2022-12-31T11:39:27.372Z,52.72
2022-12-31T11:42:15.665Z,55.44
2022-12-31T11:45:04.358Z,54.35
2022-12-31T11:48:32.939Z,55.26
2022-12-31T11:51:24.494Z,55.32
2022-12-31T11:53:51.043Z,55.53
2022-12-31T11:56:18.992Z,54.91
2022-12-31T11:58:48.659Z,54.16
2022-12-31T12:01:36.513Z,54.24
2022-12-31T12:04:03.344Z,54.98
2022-12-31T12:06:31.972Z,54.94
2022-12-31T12:09:11.472Z,55.00
2022-12-31T12:11:38.738Z,54.88
2022-12-31T12:14:30.514Z,55.63
2022-12-31T12:17:02.603Z,55.92
2022-12-31T12:19:32.376Z,55.61
2022-12-31T12:21:59.687Z,56.41
2022-12-31T12:24:28.900Z,55.07
2022-12-31T12:26:56.065Z,54.11
2022-12-31T12:29:22.668Z,54.63
2022-12-31T12:31:59.638Z,54.89
2022-12-31T12:34:34.282Z,54.99
2022-12-31T12:37:01.049Z,55.64
2022-12-31T12:39:32.524Z,54.07
2022-12-31T12:42:07.363Z,53.87
2022-12-31T12:44:36.002Z,53.77
2022-12-31T12:47:04.008Z,52.17
2022-12-31T12:49:45.846Z,52.84
2022-12-31T12:52:27.413Z,51.55
2022-12-31T12:55:12.593Z,51.09
2022-12-31T12:58:14.167Z,50.90
2022-12-31T13:01:14.463Z,50.78
2022-12-31T13:04:07.225Z,51.75
2022-12-31T13:06:52.354Z,50.46
2022-12-31T13:09:37.567Z,50.26
2022-12-31T13:12:12.278Z,50.37
2022-12-31T13:15:01.165Z,49.48
2022-12-31T13:17:55.068Z,51.14
2022-12-31T13:20:59.025Z,51.32
2022-12-31T13:23:36.267Z,50.49
2022-12-31T13:26:24.624Z,50.32
2022-12-31T13:28:52.320Z,50.61
2022-12-31T13:31:36.539Z,50.39
2022-12-31T13:34:06.073Z,49.66
2022-12-31T13:36:33.043Z,49.81
2022-12-31T13:39:01.132Z,49.05
2022-12-31T13:41:31.095Z,49.05
2022-12-31T13:44:35.250Z,49.48
2022-12-31T13:47:16.015Z,50.04
2022-12-31T13:49:45.648Z,48.99
2022-12-31T13:52:27.471Z,51.04
2022-12-31T13:55:22.903Z,52.52
2022-12-31T13:58:21.673Z,54.53
2022-12-31T14:00:57.610Z,56.65
2022-12-31T14:03:42.547Z,57.33
2022-12-31T14:06:31.687Z,57.46
2022-12-31T14:08:58.437Z,57.41
2022-12-31T14:11:46.107Z,59.38
2022-12-31T14:14:27.988Z,59.27
2022-12-31T14:17:26.666Z,60.43
2022-12-31T14:20:18.189Z,60.46
2022-12-31T14:23:10.911Z,60.83
2022-12-31T14:25:42.677Z,59.97
2022-12-31T14:28:15.480Z,59.21
2022-12-31T14:30:42.147Z,59.81
2022-12-31T14:33:21.027Z,60.75
2022-12-31T14:36:10.649Z,60.54
2022-12-31T14:38:49.474Z,61.21
2022-12-31T14:41:26.696Z,61.25
2022-12-31T14:44:27.195Z,62.15
2022-12-31T14:47:22.513Z,61.83
2022-12-31T14:49:49.018Z,61.65
2022-12-31T14:52:15.714Z,61.86
2022-12-31T14:54:42.414Z,62.29
2022-12-31T14:57:18.291Z,62.13
2022-12-31T15:00:23.589Z,61.59
2022-12-31T15:02:52.040Z,62.14
2022-12-31T15:05:21.080Z,62.66
2022-12-31T15:07:56.024Z,62.31
2022-12-31T15:10:39.378Z,62.20
2022-12-31T15:13:07.206Z,63.10
2022-12-31T15:16:09.142Z,63.25
2022-12-31T15:19:03.006Z,64.49
2022-12-31T15:21:51.027Z,66.21
2022-12-31T15:24:28.088Z,66.21
2022-12-31T15:26:59.257Z,67.65
2022-12-31T15:29:30.242Z,68.70
2022-12-31T15:31:58.050Z,68.80
2022-12-31T15:34:29.628Z,68.91
2022-12-31T15:36:58.178Z,68.71
2022-12-31T15:39:30.727Z,68.49
2022-12-31T15:44:57.304Z,66.48
2022-12-31T15:47:26.948Z,64.83
2022-12-31T15:49:53.602Z,66.59
2022-12-31T15:52:26.711Z,68.50
2022-12-31T15:54:55.130Z,69.39
2022-12-31T15:57:39.384Z,69.92
2022-12-31T16:00:20.602Z,69.04
2022-12-31T16:02:48.245Z,68.94
2022-12-31T16:05:22.737Z,69.60
2022-12-31T16:07:53.020Z,70.33
2022-12-31T16:10:31.452Z,71.26
2022-12-31T16:12:58.281Z,70.35
2022-12-31T16:15:30.199Z,70.12
2022-12-31T16:18:06.686Z,69.98
2022-12-31T16:20:33.965Z,72.20
2022-12-31T16:23:02.712Z,72.00
2022-12-31T16:25:31.997Z,72.54
2022-12-31T16:27:59.457Z,73.23
2022-12-31T16:30:33.163Z,72.13
2022-12-31T16:33:01.999Z,72.31
2022-12-31T16:35:32.666Z,72.34
2022-12-31T16:38:08.376Z,72.44
2022-12-31T16:40:35.096Z,73.72
2022-12-31T16:43:01.913Z,72.88
2022-12-31T16:45:35.676Z,73.30
2022-12-31T16:48:18.276Z,73.97
2022-12-31T16:50:45.751Z,74.17
2022-12-31T16:53:12.656Z,74.93
2022-12-31T16:55:39.267Z,74.63
2022-12-31T16:58:33.229Z,73.83
2022-12-31T17:01:20.764Z,72.82
2022-12-31T17:03:50.656Z,73.29
2022-12-31T17:06:18.399Z,74.08
2022-12-31T17:08:48.933Z,73.36
2022-12-31T17:11:31.649Z,74.71
2022-12-31T17:14:06.707Z,74.00
2022-12-31T17:17:03.645Z,74.03
2022-12-31T17:19:38.074Z,74.00
2022-12-31T17:22:04.790Z,75.81
2022-12-31T17:24:31.472Z,78.48
2022-12-31T17:27:03.989Z,78.28
2022-12-31T17:29:30.625Z,79.49
2022-12-31T17:32:02.178Z,80.92
2022-12-31T17:34:49.537Z,80.69
2022-12-31T17:37:22.179Z,80.18
2022-12-31T17:39:53.408Z,81.64
2022-12-31T17:42:34.577Z,80.94
2022-12-31T17:45:03.080Z,79.82
2022-12-31T17:47:34.205Z,79.31
2022-12-31T17:50:06.130Z,80.34
2022-12-31T17:52:33.632Z,79.77
2022-12-31T17:55:00.413Z,78.32
2022-12-31T17:57:27.186Z,78.55
2022-12-31T17:59:53.946Z,78.86
2022-12-31T18:02:20.832Z,78.15
2022-12-31T18:04:47.607Z,77.64
2022-12-31T18:07:14.240Z,78.64
2022-12-31T18:09:40.858Z,80.21
2022-12-31T18:12:07.531Z,79.69
2022-12-31T18:14:34.347Z,79.46
2022-12-31T18:17:01.035Z,80.13
2022-12-31T18:20:02.737Z,79.73
2022-12-31T18:22:15.934Z,79.39
2022-12-31T18:24:43.353Z,79.97
2022-12-31T18:27:17.636Z,79.72
2022-12-31T18:29:44.488Z,79.99
2022-12-31T18:32:22.671Z,80.49
2022-12-31T18:34:49.513Z,80.26
2022-12-31T18:37:21.541Z,80.88
2022-12-31T18:39:48.803Z,80.65
2022-12-31T18:42:17.241Z,80.58
2022-12-31T18:44:43.979Z,79.73
2022-12-31T18:47:14.751Z,79.50
2022-12-31T18:49:41.444Z,79.25
2022-12-31T18:52:15.190Z,78.35
2022-12-31T18:54:41.889Z,77.92
2022-12-31T18:57:12.807Z,79.81
2022-12-31T18:59:39.512Z,82.24
2022-12-31T19:02:12.127Z,81.55
2022-12-31T19:04:38.838Z,80.83
2022-12-31T19:07:05.518Z,79.06
2022-12-31T19:09:50.065Z,78.63
2022-12-31T19:12:18.828Z,78.06
2022-12-31T19:14:45.676Z,78.26
2022-12-31T19:17:12.278Z,78.85
2022-12-31T19:19:38.927Z,79.63
2022-12-31T19:22:05.633Z,81.12
2022-12-31T19:24:32.351Z,81.17
2022-12-31T19:27:00.820Z,79.88
2022-12-31T19:29:27.641Z,79.42
2022-12-31T19:31:54.455Z,80.08
2022-12-31T19:34:21.171Z,80.17
2022-12-31T19:36:49.071Z,79.58
2022-12-31T19:39:19.696Z,78.16
2022-12-31T19:41:47.542Z,80.25
2022-12-31T19:44:17.969Z,82.35
2022-12-31T19:46:44.865Z,83.23
2022-12-31T19:49:15.058Z,84.08
2022-12-31T19:51:41.854Z,84.33
2022-12-31T19:54:08.655Z,83.68
2022-12-31T19:56:35.372Z,82.99
2022-12-31T19:59:05.810Z,83.50
2022-12-31T20:01:32.537Z,85.19
2022-12-31T20:03:59.353Z,85.10
2022-12-31T20:06:26.044Z,84.72
2022-12-31T20:08:52.783Z,85.49
2022-12-31T20:11:22.912Z,85.60
2022-12-31T20:13:49.776Z,85.39
2022-12-31T20:16:17.438Z,86.36
2022-12-31T20:18:44.882Z,88.26
2022-12-31T20:21:17.731Z,89.19
2022-12-31T20:23:44.480Z,87.67
2022-12-31T20:26:11.526Z,86.52
2022-12-31T20:28:38.224Z,85.39
2022-12-31T20:31:08.836Z,85.27
2022-12-31T20:33:35.580Z,84.53
2022-12-31T20:36:03.552Z,85.35
2022-12-31T20:38:30.293Z,87.51
2022-12-31T20:41:06.281Z,85.93
2022-12-31T20:43:33.786Z,85.35
2022-12-31T20:46:07.059Z,86.98
2022-12-31T20:48:36.187Z,85.51
2022-12-31T20:51:02.922Z,84.45
2022-12-31T20:53:29.496Z,86.14
2022-12-31T20:55:56.130Z,84.62
2022-12-31T20:58:22.822Z,84.00
2022-12-31T21:00:50.398Z,83.43
2022-12-31T21:04:02.425Z,82.21
2022-12-31T21:06:06.696Z,81.92
2022-12-31T21:08:35.235Z,80.53
2022-12-31T21:11:02.646Z,78.62
2022-12-31T21:13:29.316Z,80.97
2022-12-31T21:15:55.995Z,82.84
2022-12-31T21:18:22.760Z,83.10
2022-12-31T21:20:50.376Z,82.04
2022-12-31T21:23:17.170Z,80.13
2022-12-31T21:25:44.085Z,82.90
2022-12-31T21:28:11.179Z,82.77
2022-12-31T21:30:41.400Z,82.61
2022-12-31T21:33:08.028Z,84.11
2022-12-31T21:35:45.812Z,84.00
2022-12-31T21:38:18.469Z,83.86
2022-12-31T21:40:45.219Z,84.19
2022-12-31T21:43:12.506Z,83.38
2022-12-31T21:45:39.217Z,84.22
2022-12-31T21:48:22.090Z,83.61
2022-12-31T21:50:53.383Z,82.69
2022-12-31T21:53:27.949Z,83.56
2022-12-31T21:56:11.960Z,83.17
2022-12-31T21:58:43.170Z,82.80
2022-12-31T22:01:33.890Z,82.50
2022-12-31T22:04:00.660Z,81.99
2022-12-31T22:06:27.334Z,81.51
2022-12-31T22:08:55.074Z,81.97
2022-12-31T22:11:23.291Z,82.25
2022-12-31T22:13:50.078Z,81.45
2022-12-31T22:16:17.251Z,81.65
2022-12-31T22:18:44.269Z,82.29
2022-12-31T22:21:21.173Z,84.50
2022-12-31T22:23:48.716Z,85.85
2022-12-31T22:26:16.162Z,84.59
2022-12-31T22:28:43.180Z,83.35
2022-12-31T22:31:14.293Z,84.52
2022-12-31T22:33:41.407Z,83.89
2022-12-31T22:36:10.849Z,82.86
2022-12-31T22:38:37.928Z,83.53
2022-12-31T22:41:09.911Z,84.29
2022-12-31T22:43:38.797Z,85.80
2022-12-31T22:46:07.222Z,86.66
2022-12-31T22:48:33.940Z,86.79
2022-12-31T22:51:00.587Z,87.37
2022-12-31T22:53:27.199Z,88.07
2022-12-31T22:55:54.810Z,86.98
2022-12-31T22:58:22.637Z,87.39
2022-12-31T23:00:49.440Z,85.27
2022-12-31T23:03:16.152Z,86.57
2022-12-31T23:05:43.098Z,87.04
2022-12-31T23:08:18.738Z,86.07
2022-12-31T23:11:05.494Z,85.06
2022-12-31T23:13:55.597Z,84.89
2022-12-31T23:16:41.053Z,85.71
2022-12-31T23:19:26.242Z,85.17
2022-12-31T23:22:11.332Z,85.67
2022-12-31T23:24:38.415Z,85.07
2022-12-31T23:27:05.329Z,85.33
2022-12-31T23:29:32.030Z,86.96
2022-12-31T23:31:58.668Z,88.48
2022-12-31T23:34:25.455Z,88.11
2022-12-31T23:36:52.143Z,88.70
2022-12-31T23:39:18.819Z,86.65
2022-12-31T23:41:45.477Z,85.70
2022-12-31T23:44:12.378Z,83.83
2022-12-31T23:46:40.388Z,82.61
2022-12-31T23:49:07.055Z,82.83
2022-12-31T23:51:33.669Z,82.63
2022-12-31T23:54:00.704Z,84.49
2022-12-31T23:56:27.437Z,85.30
2022-12-31T23:58:57.586Z,84.36
